Monday, November 24, 2014
06:52 UTC
  |  Log In   |  Register Free
Airport Search:

Hampton Roads Executive Airport
(KPVG)

Hampton Roads Executive Airport Diagram
No Airport Diagram Available

FAA data valid effective November 13, 2014 - January 08, 2015 (unless otherwise noted).

 
 
 
 
 
 
 
 
 
 
 
 
 
 

Current Aviation Weather for Hampton Roads Executive Airport (KPVG)

The most recent METAR observation for KPVG was updated at: 0619
METAR Summary (Translated METAR)
KPVG
240555Z AUTO 16012G18KT 10SM SCT009 OVC019 18/17 A2982 RMK AO1 P0004 60022 10180 20140 57044
KCPK
240555Z AUTO 15012G22KT 10SM -RA BKN012 BKN017 OVC033 19/18 A2980 RMK AO2
(9.2 nm SE from KPVG)
KSFQ
240555Z AUTO 16015G23KT 10SM -RA 18/18 A2981 RMK AO2 P0007 60023 T01770175 10177 20141
(9.4 nm SW from KPVG)
TAF
No TAF information found within 50 nm of KPVG
  Airport Weather Conditions for KPVG

 Current Weather at PVG
64° F
Overcast
South winds at 13.8 mph
PVG NOAA Radar

Pressure: 29.82 in
Humidity: 94%
Wind: from the South at 13.8 gusting to 20.7 MPH (12 gusting to 18 KT)
Dew Point: 62.6°F
Visibility: 10.00 mi


Airport Weather Forecast for KPVG

Translated METAR and TAF for KPVG
Translated METAR for KPVG (0647 UTC 24 November 2014)
found at http://aviationweather.gov/adds/metars/
 
METAR text: KPVG 240635Z AUTO 15010KT 5SM SCT010 OVC015 18/17 A2980 RMK AO1 P0021
Conditions at: KPVG (NORFOLK/HAMPTON , VA, US) observed 0635 UTC 24 November 2014
Temperature: 18.0°C (64°F)
Dewpoint: 17.0°C (63°F) [RH = 94%]
Pressure (altimeter): 29.80 inches Hg (1009.2 mb)
Winds: from the SSE (150 degrees) at 12 MPH (10 knots; 5.2 m/s)
Visibility: 5 miles (8 km)
Ceiling: 1500 feet AGL
Clouds: scattered clouds at 1000 feet AGL
overcast cloud deck at 1500 feet AGL
Weather: automated observation with no human augmentation;
there may or may not be significant weather present at this time
Translated TAF for KPVG

There is no translated TAF available for this airport

Find All Airport Services Find A Hotel Find A Rental Car Find A Golf Course Find A Restaurant $100 Hamburger



FBO's on the Field
FBO Company Facility Photos Services Transportation Aviation Fuel Prices: Prices include tax
Catering Weather Repair Courtesy Rental Type 100LL JetA JetA+ MOGAS 8087
 
Hampton Roads Executive Airport

This FBO has not yet been rated
FS:Shell
Last Updated: Oct-14
Login to update fuel prices
SS:
Contact Hampton Roads Executive AirportMore FBO Information
 
Add another FBO Facility Photos Catering Weather Repair Courtesy Rental Type 100LL JetA JetA+ MOGAS 8087
Services Transportation Aviation Fuel Prices: Prices include tax


model-print
model-print
model-print
model-print